Airfield :
LOGIN :

Register | Disclaimer

   EN    FR    IT 

 










Legend :    VFR   Marginal VFR   IFR   Intensive IFR   Very Intensive IFR
Visi :
Ceiling :
>= 8 km
>= 3000ft
5 to 8 km
1000 to 3000 ft
1500m to 5 km
500 to 1000 ft
800 to 1500m
200 to 500 ft
< 800m
< 200 ft
Symbols :   Thunderstorms  Fog  Heavy snow  Heavy precipitations  Wind > 20 kt
SIGMETs :     Misc.  Thunderstorms  Icing  Turbulence  Mountain Waves  Volcanic Ashes







- Airport Elevation : 23 ft
- IATA code : XFW


EDHI - Hamburg Finkenwerder

CURRENT METAR :
  • 190650Z 12006KT 080V150 9999 FEW004 SCT005 11/10 Q1013

EXPIRED METARs :
  • 190620Z 10004KT 070V140 9999 FEW009 11/10 Q1013
  • 190550Z 12005KT 070V150 CAVOK 11/10 Q1013
  • 190520Z VRB03KT CAVOK 11/10 Q1013
  • 190450Z 10004KT 9999 FEW009 11/10 Q1013
  • 190420Z VRB03KT 9999 FEW009 BKN024 11/10 Q1013

TAF TAF EDHI
Valid from the 19 at 06:00 until the 19 at 15:00 UTC


190500Z 1906/1915 12005KT 9999 BKN025
TEMPO 1906/1910 BKN012
PROB30
TEMPO 1906/1908 3500 BR BKN007
PROB30
TEMPO 1910/1912 BKN012
No reported NOTAMs for that airfield.



MET'MAP, your aeronautical weather chart ! - Copyright ORBIFLY December 2007 - Disclaimer

ORBIFLY MET'MAP TEAM :

Programming & Development : Alexandra Zaïnal
Concept & Development : Baudouin d'Aumeries
Co-Development & Prog : Marc-Olivier Méhu
Technical & hardware support : Manuel Goepfert

Contact : metmap@orbifly.com




SOURCES & CREDITS :

   NOAA